AirNav   Air Wisconsin pilot careers
 
 1030 users online  

W17 Raleigh East Airport
Knightdale, North Carolina, USA

GOING TO KNIGHTDALE?


FAA INFORMATION EFFECTIVE 01 FEBRUARY 2018

Location

FAA Identifier: W17
Lat/Long: 35-47-51.8000N / 078-26-13.2350W
35-47.863333N / 078-26.220583W
35.7977222 / -78.4370097
(estimated)
Elevation: 313 ft. / 95.4 m (surveyed)
Variation: 07W (1985)
From city: 2 miles E of KNIGHTDALE, NC
Time zone: UTC -5 (UTC -4 during Daylight Saving Time)
Zip code: 27545

Airport Operations

Airport use: Open to the public
Activation date: 05/1964
Control tower: no
ARTCC: WASHINGTON CENTER
FSS: RALEIGH FLIGHT SERVICE STATION
NOTAMs facility: RDU (NOTAM-D service available)
Attendance: IREG
Wind indicator: yes
Segmented circle: no
Lights: SS-SR
Beacon: white-green (lighted land airport)
Operates sunset to sunrise.

Airport Communications

CTAF/UNICOM: 122.8
WX AWOS-3 at LHZ (14 nm N): 118.325 (919-497-0810)
WX AWOS-3 at JNX (16 nm S): 120.225 (919-934-3851)
WX ASOS at RDU (18 nm W): PHONE 919-840-0816

Nearby radio navigation aids

VOR radial/distance  VOR name  Freq  Var
RDUr109/17.4RALEIGH/DURHAM VORTAC117.2004W
TYIr258/37.2TAR RIVER VORTAC117.8005W

 
NDB name  Hdg/Dist  Freq  Var  ID
HARNETT036/24.841708WHQT .... --.- -
HUNTSBORO173/31.527109WHXO .... -..- ---

Airport Services

Fuel available: MOGAS
FOR FUEL CALL 919-833-5207.
Parking: tiedowns
Airframe service: NONE
Powerplant service: NONE

Runway Information

Runway 1/19

Dimensions: 3000 x 36 ft. / 914 x 11 m
Surface: asphalt, in fair condition
ROLLING PAVEMENT AND RY CRACKS
Weight bearing capacity: 
Single wheel: 4.0
Runway edge lights: non-standard
NSTD LIRL; THLD LGTS ARE WHITE; RY 19 LGTD THLD RELOCATED 70 FT; 2930 FT OF RY 01/19 USBL AT NIGHT; EDGE LGTS ARE 17 FT FM RY EDGE.
Runway edge markings: RY 01/19 NSTD SMALL MARKINGS.
RUNWAY 1  RUNWAY 19
Gradient: 1.5%1.5%
Traffic pattern: leftleft
Markings: NSTD, in fair conditionNSTD, in fair condition
Obstructions: 17 ft. trees, 214 ft. from runway, 91 ft. left of centerline
20 FT TREES 0-200 FROM THR OFFSET 58 FT LEFT OF CNTRLN.
61 ft. trees, 476 ft. from runway, 86 ft. left of centerline, 4:1 slope to clear

Airport Ownership and Management from official FAA records

Ownership: Privately-owned
Owner: J. T. KNOTT JR.
933 THREE SISTERS ROAD
KNIGHTDALE, NC 27545
Phone 919-266-1298
Manager: MARSHALL SANDERSON
13301 MELVIN ARNOLD RD
RALEIGH, NC 27613
Phone 919-676-8479

Airport Operational Statistics

Aircraft based on the field: 33
Single engine airplanes: 30
Multi engine airplanes: 1
Ultralights: 2
    
Aircraft operations: avg 21/day *
67% local general aviation
27% transient general aviation
7% military
* for 12-month period ending 06 July 2017

Additional Remarks

+5 FT TERRAIN 20 FT FROM RY EDGE WEST SIDE SOUTH 2/3 OF RY.
RY 19 THLD APRXLY 40 FT HIGHER THAN RY 01 THLD (SLOPES UPHILL TO THE NORTH).
RY 19 SAFETY AREA HAS +20 FT BLDGS & PARKED ACFT.
RY 19 HAS 60 FT POWER LINES 1000 FT FM THLD BOTH SIDES OF CNTRLN.

Instrument Procedures

There are no published instrument procedures at W17.

Some nearby airports with instrument procedures:

KLHZ - Triangle North Executive Airport (14 nm N)
KJNX - Johnston Regional Airport (16 nm S)
KRDU - Raleigh-Durham International Airport (18 nm W)
W03 - Wilson Industrial Air Center Airport (23 nm E)
KRWI - Rocky Mount-Wilson Regional Airport (27 nm E)
 
Loc | Ops | Rwys | IFR | FBO | Links
Com | Nav | Svcs | Stats | Notes

AirNav Hotels Sweepstakes
 
Area around W17 (Raleigh East Airport)
 
Road maps at: MapQuest Bing Google
 
Aerial photo
WARNING: Photo may not be current or correct
Aerial photo of W17 (Raleigh East Airport)
Photo by John Romero
Photo taken 05-Mar-2011
looking south.

Do you have a better or more recent aerial photo of Raleigh East Airport that you would like to share? If so, please send us your photo.

 
Sectional chart

 
Airport distance calculator
Flying to Raleigh East Airport? Find the distance to fly.

From to W17

Sunrise and sunset
Times for 18-Feb-2018
 Local
(UTC-5)
 Zulu
(UTC)
Morning civil twilight06:3211:32
Sunrise06:5811:58
Sunset17:5722:57
Evening civil twilight18:2323:23

Current date and time
Zulu (UTC)  19-Feb-2018 02:31:10
Local (UTC-5)  18-Feb-2018 21:31:10
 
METAR
KLHZ 
14nm N 
190215Z AUTO 12007KT 10SM CLR 07/04 A3046 RMK AO2
KJNX 
16nm S 
190220Z AUTO 00000KT 10SM OVC036 11/05 A3044 RMK AO2
KRDU 
17nm W 
190151Z 11007KT 10SM FEW055 BKN250 10/04 A3041 RMK AO2 SLP297 T01000044
KRWI 
26nm E 
190153Z AUTO VRB03KT 10SM CLR 08/03 A3046 RMK AO2 SLP315 T00830028
KHRJ 
29nm SW 
190215Z AUTO 10007KT 10SM SCT048 12/05 A3042 RMK AO2 T01170050
TAF
KRDU 
17nm W 
181720Z 1818/1918 06006KT P6SM SCT250 FM190500 10008KT P6SM OVC050 FM190900 09003KT 4SM -RA BR OVC025 FM191100 06004KT 1 1/2SM -RA BR OVC004 FM191500 VRB04KT 1SM -DZ BR OVC004
NOTAMs
Click for the latest NOTAMs
NOTAMs are issued by the DoD/FAA and will open in a separate window not controlled by AirNav.

 

 
 

FBO, Fuel Providers, and Aircraft Ground Support

  
 Business Name 
 
 Contact 
 
 Services / Description 
 
Fuel Prices
 
Comments
  
Raleigh East Flight Training 919-610-8743
[web site]
[email]
Aviation fuel, Aircraft parking (ramp or tiedown), Flight training, Aircraft rental, Internet access, Restrooms, Showers

More info about Raleigh East Flight Training
independent
Mogas
PS $3.00 
 Updated 31-Jan-2018
 
   write
PS=Pump service
Update Fuel Prices
 

Would you like to see your business listed on this page?

 If your business provides an interesting product or service to pilots, flight crews, aircraft, or users of the Raleigh East Airport, you should consider listing it here.  To start the listing process, click on the button below
 
Add a business
 

Other Pages about Raleigh East Airport

Update a link
 
Copyright © AirNav, LLC. All rights reserved. Privacy Policy  Contact